Time;durP1;ratioP1;P1;durP2;ratioP2;P2;SDS_P1;SDS_P2;PMS_P1;PMS_P2;Temp;Humidity;BMP_temperature;BMP_pressure;BME280_temperature;BME280_humidity;BME280_pressure;Samples;Min_cycle;Max_cycle;Signal;HPM_P1;HPM_P2
2022/10/09 00:00:19;;;;;;;4.00;0.68;;;6.30;99.90;;;;;;4984061;28;20101;-59
2022/10/09 00:02:45;;;;;;;2.72;1.30;;;6.30;99.90;;;;;;4982427;28;20037;-60
2022/10/09 00:05:10;;;;;;;1.90;0.52;;;6.50;99.90;;;;;;4990053;28;20026;-60
2022/10/09 00:07:36;;;;;;;5.07;0.57;;;6.30;99.90;;;;;;4986239;28;20032;-59
2022/10/09 00:10:02;;;;;;;2.40;0.82;;;6.30;99.90;;;;;;4985490;28;20034;-59
2022/10/09 00:12:28;;;;;;;3.55;0.88;;;6.30;99.90;;;;;;4981573;28;20037;-59
2022/10/09 00:14:54;;;;;;;0.85;0.70;;;6.30;99.90;;;;;;4980338;28;20109;-61
2022/10/09 00:17:20;;;;;;;7.25;2.28;;;6.40;99.90;;;;;;4979215;28;20019;-60
2022/10/09 00:19:45;;;;;;;1.38;0.60;;;6.30;99.90;;;;;;4977152;28;20035;-59
2022/10/09 00:22:11;;;;;;;1.95;0.30;;;6.30;99.90;;;;;;4974024;28;20033;-60
2022/10/09 00:24:36;;;;;;;5.18;1.33;;;6.20;99.90;;;;;;4985975;28;20034;-60
2022/10/09 00:27:02;;;;;;;3.72;2.10;;;6.10;99.90;;;;;;4980961;28;20394;-59
2022/10/09 00:29:28;;;;;;;6.80;1.92;;;6.10;99.90;;;;;;4981977;28;20030;-60
2022/10/09 00:31:54;;;;;;;6.78;1.73;;;6.10;99.90;;;;;;4979310;28;20027;-61
2022/10/09 00:34:19;;;;;;;2.55;1.20;;;5.90;99.90;;;;;;4983497;28;20041;-59
2022/10/09 00:36:45;;;;;;;1.63;1.13;;;5.90;99.90;;;;;;4975034;28;20026;-60
2022/10/09 00:39:11;;;;;;;1.38;0.68;;;6.00;99.90;;;;;;4980272;28;20451;-57
2022/10/09 00:41:36;;;;;;;1.80;1.23;;;6.00;99.90;;;;;;4981088;28;20049;-60
2022/10/09 00:44:23;;;;;;;7.20;1.85;;;5.90;99.90;;;;;;4972922;28;20105;-59
2022/10/09 00:46:51;;;;;;;6.95;1.80;;;5.80;99.90;;;;;;4990211;28;20061;-59
2022/10/09 00:49:30;;;;;;;4.45;1.98;;;5.70;99.90;;;;;;4985833;28;20098;-59
2022/10/09 00:52:00;;;;;;;4.15;1.80;;;5.60;99.90;;;;;;4970679;28;20042;-57
2022/10/09 00:54:30;;;;;;;4.80;2.15;;;5.70;99.90;;;;;;4974972;28;20426;-58
2022/10/09 00:56:56;;;;;;;4.97;1.02;;;5.60;99.90;;;;;;4982699;28;20030;-60
2022/10/09 00:59:22;;;;;;;0.88;0.80;;;5.60;99.90;;;;;;4984076;28;20038;-60
2022/10/09 01:01:47;;;;;;;4.07;2.17;;;5.60;99.90;;;;;;4987814;28;20068;-59
2022/10/09 01:04:13;;;;;;;6.55;2.50;;;5.60;99.90;;;;;;4974506;28;20483;-60
2022/10/09 01:07:01;;;;;;;4.10;2.28;;;5.50;99.90;;;;;;4987403;28;20478;-58
2022/10/09 01:09:41;;;;;;;5.28;2.80;;;5.50;99.90;;;;;;4971727;28;20055;-58
2022/10/09 01:12:24;;;;;;;7.82;2.45;;;5.50;99.90;;;;;;4967866;28;20043;-58
2022/10/09 01:14:52;;;;;;;12.55;2.60;;;5.50;99.90;;;;;;4970347;28;20033;-61
2022/10/09 01:17:47;;;;;;;8.70;2.53;;;5.40;99.90;;;;;;4983169;28;20037;-57
2022/10/09 01:20:41;;;;;;;8.23;2.55;;;5.30;99.90;;;;;;4976551;28;20069;-59
2022/10/09 01:23:31;;;;;;;4.13;1.80;;;5.30;99.90;;;;;;4972573;28;20038;-59
2022/10/09 01:26:08;;;;;;;3.28;1.70;;;5.20;99.90;;;;;;4985068;28;20063;-59
2022/10/09 01:28:36;;;;;;;3.10;1.83;;;5.10;99.90;;;;;;4976762;28;20080;-58
2022/10/09 01:31:05;;;;;;;2.70;1.65;;;5.10;99.90;;;;;;4986002;28;20029;-58
2022/10/09 01:33:31;;;;;;;5.80;1.80;;;5.00;99.90;;;;;;4985665;28;20487;-59
2022/10/09 01:35:59;;;;;;;7.82;2.58;;;5.00;99.90;;;;;;4977493;28;20033;-58
2022/10/09 01:38:27;;;;;;;6.22;2.28;;;4.90;99.90;;;;;;4983385;28;20446;-59
2022/10/09 01:40:53;;;;;;;2.30;1.65;;;4.90;99.90;;;;;;4984073;28;20043;-59
2022/10/09 01:43:19;;;;;;;2.88;1.55;;;4.90;99.90;;;;;;4976088;28;20141;-60
2022/10/09 01:45:46;;;;;;;3.35;1.35;;;5.00;99.90;;;;;;4979005;28;20534;-59
2022/10/09 01:48:18;;;;;;;5.57;1.73;;;5.00;99.90;;;;;;4977898;28;20027;-58
2022/10/09 01:50:50;;;;;;;2.63;1.92;;;5.10;99.90;;;;;;4979577;28;20134;-58
2022/10/09 01:53:18;;;;;;;3.25;1.17;;;5.00;99.90;;;;;;4976365;28;20058;-59
2022/10/09 01:56:05;;;;;;;7.20;1.60;;;5.00;99.90;;;;;;4977259;28;20042;-59
2022/10/09 01:58:54;;;;;;;4.45;1.48;;;4.90;99.90;;;;;;4981119;28;20045;-59
2022/10/09 02:01:25;;;;;;;2.65;1.73;;;4.90;99.90;;;;;;4970616;28;20106;-60
2022/10/09 02:03:52;;;;;;;4.32;1.17;;;4.90;99.90;;;;;;4973692;28;20042;-59
2022/10/09 02:06:19;;;;;;;2.55;1.40;;;5.00;99.90;;;;;;4980570;28;20035;-60
2022/10/09 02:08:48;;;;;;;3.63;1.58;;;5.00;99.90;;;;;;4977978;28;20065;-58
2022/10/09 02:11:14;;;;;;;2.67;1.73;;;4.90;99.90;;;;;;4973514;28;20128;-59
2022/10/09 02:13:42;;;;;;;3.10;1.73;;;4.90;99.90;;;;;;4985985;28;20109;-57
2022/10/09 02:16:19;;;;;;;3.33;1.35;;;4.90;99.90;;;;;;4982126;28;20081;-57
2022/10/09 02:18:55;;;;;;;1.33;1.02;;;4.90;99.90;;;;;;4975429;28;20027;-57
2022/10/09 02:21:25;;;;;;;3.25;1.55;;;4.80;99.90;;;;;;4976185;28;20475;-57
2022/10/09 02:23:52;;;;;;;3.47;1.25;;;4.90;99.90;;;;;;4988371;28;20105;-58
2022/10/09 02:26:18;;;;;;;2.83;1.20;;;4.90;99.90;;;;;;4977397;28;20042;-59
2022/10/09 02:28:44;;;;;;;4.18;1.00;;;4.90;99.90;;;;;;4969267;28;20030;-58
2022/10/09 02:31:22;;;;;;;2.63;0.70;;;4.80;99.90;;;;;;4981997;28;20038;-60
2022/10/09 02:33:59;;;;;;;3.25;1.30;;;4.80;99.90;;;;;;4982475;28;20031;-58
2022/10/09 02:36:25;;;;;;;7.38;1.23;;;4.80;99.90;;;;;;4967239;28;20112;-58
2022/10/09 02:38:53;;;;;;;1.30;0.82;;;4.80;99.90;;;;;;4981392;28;20031;-58
2022/10/09 02:41:19;;;;;;;11.75;2.03;;;4.80;99.90;;;;;;4971952;28;20391;-58
2022/10/09 02:43:44;;;;;;;2.28;1.38;;;4.70;99.90;;;;;;4986502;28;20019;-58
2022/10/09 02:46:10;;;;;;;2.92;0.85;;;4.60;99.90;;;;;;4982678;28;20405;-58
2022/10/09 02:48:35;;;;;;;1.60;1.13;;;4.60;99.90;;;;;;4977854;28;20027;-58
2022/10/09 02:51:01;;;;;;;1.73;1.10;;;4.80;99.90;;;;;;4983495;28;20036;-59
2022/10/09 02:53:27;;;;;;;2.28;1.35;;;4.80;99.90;;;;;;4986211;28;20031;-62
2022/10/09 02:55:52;;;;;;;2.78;0.80;;;4.90;99.90;;;;;;4982286;28;20167;-59
2022/10/09 02:58:18;;;;;;;2.10;0.98;;;4.80;99.90;;;;;;4981145;28;20054;-60
2022/10/09 03:00:48;;;;;;;1.48;0.65;;;4.80;99.90;;;;;;4989449;28;20060;-59
2022/10/09 03:03:14;;;;;;;1.67;0.80;;;4.80;99.90;;;;;;4989035;28;20030;-59
2022/10/09 03:05:39;;;;;;;2.58;1.17;;;4.70;99.90;;;;;;4983771;28;20057;-61
2022/10/09 03:08:05;;;;;;;5.30;1.80;;;4.80;99.90;;;;;;4977888;28;20387;-60
2022/10/09 03:10:31;;;;;;;2.10;1.63;;;4.70;99.90;;;;;;4983234;28;20102;-59
2022/10/09 03:12:57;;;;;;;5.45;1.10;;;4.70;99.90;;;;;;4978922;28;20506;-59
2022/10/09 03:15:23;;;;;;;2.05;0.95;;;4.70;99.90;;;;;;4986538;28;20037;-60
2022/10/09 03:17:49;;;;;;;2.70;1.25;;;4.70;99.90;;;;;;4982021;28;20039;-60
2022/10/09 03:20:15;;;;;;;1.30;0.80;;;4.70;99.90;;;;;;4977317;28;20542;-59
2022/10/09 03:22:40;;;;;;;1.70;0.70;;;4.70;99.90;;;;;;4988521;28;20034;-58
2022/10/09 03:25:07;;;;;;;3.38;1.27;;;4.70;99.90;;;;;;4983798;28;20089;-59
2022/10/09 03:27:32;;;;;;;4.10;1.38;;;4.70;99.90;;;;;;4973746;28;20026;-59
2022/10/09 03:29:58;;;;;;;1.67;0.90;;;4.80;99.90;;;;;;4975711;28;20043;-59
2022/10/09 03:32:24;;;;;;;1.55;1.27;;;4.70;99.90;;;;;;4992412;28;20441;-58
2022/10/09 03:34:50;;;;;;;1.50;0.80;;;4.70;99.90;;;;;;4987932;28;20537;-60
2022/10/09 03:37:15;;;;;;;3.30;1.35;;;4.60;99.90;;;;;;4980841;28;20042;-59
2022/10/09 03:39:41;;;;;;;4.22;1.48;;;4.60;99.90;;;;;;4982250;28;20030;-58
2022/10/09 03:42:07;;;;;;;3.03;1.25;;;4.60;99.90;;;;;;4980261;28;20038;-58
2022/10/09 03:44:32;;;;;;;4.00;1.45;;;4.60;99.90;;;;;;4980950;28;20046;-61
2022/10/09 03:46:58;;;;;;;3.22;1.33;;;4.60;99.90;;;;;;4987269;28;20049;-59
2022/10/09 03:49:24;;;;;;;5.97;1.40;;;4.70;99.90;;;;;;4990036;28;20026;-57
2022/10/09 03:51:49;;;;;;;4.55;1.35;;;4.60;99.90;;;;;;4979432;28;20554;-58
2022/10/09 03:54:15;;;;;;;3.13;1.30;;;4.60;99.90;;;;;;4979434;28;20486;-59
2022/10/09 03:56:40;;;;;;;4.82;1.65;;;4.60;99.90;;;;;;4976627;28;20037;-59
2022/10/09 03:59:08;;;;;;;3.28;1.42;;;4.60;99.90;;;;;;4983067;28;20033;-60
2022/10/09 04:01:34;;;;;;;4.97;1.50;;;4.60;99.90;;;;;;4990763;28;20034;-60
2022/10/09 04:04:00;;;;;;;4.68;1.42;;;4.50;99.90;;;;;;4979352;28;20107;-61
2022/10/09 04:06:26;;;;;;;1.40;1.20;;;4.50;99.90;;;;;;4981650;28;20037;-62
2022/10/09 04:08:52;;;;;;;2.38;1.33;;;4.50;99.90;;;;;;4982926;28;20034;-59
2022/10/09 04:11:18;;;;;;;3.88;1.58;;;4.50;99.90;;;;;;4981583;28;20161;-60
2022/10/09 04:13:43;;;;;;;3.78;1.23;;;4.40;99.90;;;;;;4979118;28;20105;-58
2022/10/09 04:16:11;;;;;;;3.40;1.45;;;4.50;99.90;;;;;;4979419;28;20082;-59
2022/10/09 04:18:38;;;;;;;3.25;1.48;;;4.40;99.90;;;;;;4983733;28;20544;-58
2022/10/09 04:21:04;;;;;;;5.13;1.65;;;4.40;99.90;;;;;;4980100;28;20068;-61
2022/10/09 04:23:30;;;;;;;3.38;1.60;;;4.40;99.90;;;;;;4977410;28;20503;-57
2022/10/09 04:25:58;;;;;;;4.38;1.35;;;4.40;99.90;;;;;;4989272;28;20117;-63
2022/10/09 04:28:24;;;;;;;1.63;0.93;;;4.40;99.90;;;;;;4986515;28;20048;-59
2022/10/09 04:30:50;;;;;;;1.52;1.27;;;4.30;99.90;;;;;;4983461;28;20109;-60
2022/10/09 04:33:16;;;;;;;2.25;1.60;;;4.30;99.90;;;;;;4976063;28;20122;-60
2022/10/09 04:35:48;;;;;;;1.60;1.05;;;4.20;99.90;;;;;;4980728;28;20022;-59
2022/10/09 04:38:13;;;;;;;2.05;1.48;;;4.10;99.90;;;;;;4972210;28;20034;-59
2022/10/09 04:40:40;;;;;;;5.38;1.95;;;4.10;99.90;;;;;;4980278;28;20062;-58
2022/10/09 04:43:05;;;;;;;2.15;1.60;;;4.00;99.90;;;;;;4984605;28;20053;-58
2022/10/09 04:45:31;;;;;;;4.57;2.33;;;4.10;99.90;;;;;;4978874;28;20495;-59
2022/10/09 04:47:57;;;;;;;2.80;1.48;;;4.00;99.90;;;;;;4971092;28;20115;-57
2022/10/09 04:50:23;;;;;;;4.28;2.25;;;4.00;99.90;;;;;;4985571;28;20554;-57
2022/10/09 04:52:48;;;;;;;8.75;2.80;;;4.00;99.90;;;;;;4977729;28;21766;-58
2022/10/09 04:55:14;;;;;;;9.15;2.55;;;4.00;99.90;;;;;;4980647;28;20054;-57
2022/10/09 04:57:40;;;;;;;5.38;2.88;;;3.90;99.90;;;;;;4990466;28;20064;-60
2022/10/09 05:00:06;;;;;;;7.07;2.80;;;3.80;99.90;;;;;;4969627;28;20046;-58
2022/10/09 05:02:32;;;;;;;6.82;2.28;;;3.80;99.90;;;;;;4978608;28;20030;-58
2022/10/09 05:04:57;;;;;;;4.47;2.13;;;3.70;99.90;;;;;;4987417;28;20073;-57
2022/10/09 05:07:23;;;;;;;3.58;1.95;;;3.70;99.90;;;;;;4986872;28;20056;-57
2022/10/09 05:09:49;;;;;;;4.57;2.38;;;3.60;99.90;;;;;;4981459;28;20038;-57
2022/10/09 05:12:15;;;;;;;6.38;2.55;;;3.60;99.90;;;;;;4984646;28;20789;-58
2022/10/09 05:14:40;;;;;;;7.75;1.95;;;3.60;99.90;;;;;;4987796;28;20030;-58
2022/10/09 05:17:06;;;;;;;3.20;2.28;;;3.60;99.90;;;;;;4989244;28;20050;-58
2022/10/09 05:19:32;;;;;;;5.85;2.13;;;3.60;99.90;;;;;;4978225;28;20034;-58
2022/10/09 05:21:59;;;;;;;3.25;1.73;;;3.60;99.90;;;;;;4989035;28;20133;-58
2022/10/09 05:24:26;;;;;;;2.33;1.30;;;3.60;99.90;;;;;;4990618;28;20069;-59
2022/10/09 05:26:51;;;;;;;4.78;1.75;;;3.60;99.90;;;;;;4987561;28;20570;-58
2022/10/09 05:29:17;;;;;;;3.03;1.77;;;3.60;99.90;;;;;;4979237;28;20097;-58
2022/10/09 05:31:43;;;;;;;1.80;1.42;;;3.50;99.90;;;;;;4975961;28;20550;-58
2022/10/09 05:34:08;;;;;;;1.58;1.17;;;3.50;99.90;;;;;;4978003;28;20031;-60
2022/10/09 05:36:34;;;;;;;3.70;2.08;;;3.50;99.90;;;;;;4972000;28;20106;-60
2022/10/09 05:39:00;;;;;;;3.65;1.67;;;3.50;99.90;;;;;;4977219;28;20133;-57
2022/10/09 05:41:27;;;;;;;1.67;0.93;;;3.70;99.90;;;;;;4970652;28;20042;-59
2022/10/09 05:43:53;;;;;;;1.85;1.50;;;3.70;99.90;;;;;;4981559;28;20386;-60
2022/10/09 05:46:19;;;;;;;3.65;1.88;;;3.70;99.90;;;;;;4984551;28;20073;-59
2022/10/09 05:48:51;;;;;;;5.60;1.77;;;3.60;99.90;;;;;;4981842;28;20057;-58
2022/10/09 05:51:19;;;;;;;5.57;1.13;;;3.70;99.90;;;;;;4978155;28;20038;-58
2022/10/09 05:53:46;;;;;;;4.40;1.90;;;3.70;99.90;;;;;;4981182;28;20440;-58
2022/10/09 05:56:26;;;;;;;3.00;1.88;;;3.80;99.90;;;;;;4979179;28;20101;-59
2022/10/09 05:59:01;;;;;;;2.90;1.65;;;3.80;99.90;;;;;;4969779;28;20030;-57
2022/10/09 06:01:31;;;;;;;2.80;1.65;;;3.90;99.90;;;;;;4968175;28;20042;-59
2022/10/09 06:03:58;;;;;;;1.92;1.15;;;3.90;99.90;;;;;;4969892;28;20383;-59
2022/10/09 06:06:29;;;;;;;2.10;1.30;;;3.80;99.90;;;;;;4979995;28;20034;-57
2022/10/09 06:08:56;;;;;;;1.08;0.88;;;3.90;99.90;;;;;;4985833;28;20089;-60
2022/10/09 06:11:27;;;;;;;3.38;1.50;;;3.90;99.90;;;;;;4983569;28;20023;-58
2022/10/09 06:13:53;;;;;;;2.60;1.00;;;4.80;99.90;;;;;;4979056;28;20045;-57
2022/10/09 06:16:19;;;;;;;1.42;0.98;;;3.90;99.90;;;;;;4973444;28;20402;-57
2022/10/09 06:18:46;;;;;;;1.83;1.02;;;3.90;99.90;;;;;;4985680;28;20027;-57
2022/10/09 06:21:13;;;;;;;1.40;0.70;;;3.80;99.90;;;;;;4988273;28;20042;-58
2022/10/09 06:23:39;;;;;;;1.55;1.10;;;3.80;99.90;;;;;;4981876;28;20027;-58
2022/10/09 06:26:08;;;;;;;4.78;1.50;;;3.70;99.90;;;;;;4979588;28;20398;-58
2022/10/09 06:28:34;;;;;;;4.03;1.23;;;3.70;99.90;;;;;;4977560;28;20050;-61
2022/10/09 06:31:09;;;;;;;1.58;1.17;;;3.80;99.90;;;;;;4981760;28;20041;-58
2022/10/09 06:33:37;;;;;;;2.88;1.33;;;3.70;99.90;;;;;;4973507;28;20034;-57
2022/10/09 06:36:09;;;;;;;2.63;1.00;;;3.80;99.90;;;;;;4983605;28;20031;-58
2022/10/09 06:38:35;;;;;;;2.65;1.15;;;3.90;99.90;;;;;;4983858;28;20029;-62
2022/10/09 06:41:07;;;;;;;2.45;1.00;;;4.00;99.90;;;;;;4981541;28;20129;-59
2022/10/09 06:43:33;;;;;;;2.47;1.20;;;4.00;99.90;;;;;;4983401;28;20018;-58
2022/10/09 06:46:00;;;;;;;4.15;1.40;;;4.00;99.90;;;;;;4939688;28;1200620;-59
2022/10/09 06:48:29;;;;;;;2.00;1.10;;;4.00;99.90;;;;;;4983566;28;20084;-58
2022/10/09 06:51:05;;;;;;;2.08;1.00;;;4.00;99.90;;;;;;4979626;28;20034;-57
2022/10/09 06:53:35;;;;;;;2.33;1.10;;;4.00;99.90;;;;;;4970708;28;20109;-57
2022/10/09 06:56:01;;;;;;;3.92;1.95;;;4.00;99.90;;;;;;4978415;28;20068;-57
2022/10/09 06:58:28;;;;;;;2.17;1.10;;;4.00;99.90;;;;;;4983294;28;20084;-59
2022/10/09 07:01:14;;;;;;;3.05;1.20;;;4.10;99.90;;;;;;4986909;28;20066;-57
2022/10/09 07:03:42;;;;;;;1.55;1.00;;;4.20;99.90;;;;;;4976000;28;20115;-58
2022/10/09 07:06:12;;;;;;;1.88;1.23;;;4.20;99.90;;;;;;4983413;28;20065;-57
2022/10/09 07:08:40;;;;;;;10.25;2.15;;;4.20;99.90;;;;;;4977748;28;20380;-58
2022/10/09 07:11:21;;;;;;;1.45;1.00;;;4.20;99.90;;;;;;4985241;28;20027;-58
2022/10/09 07:13:48;;;;;;;4.07;1.67;;;4.30;99.90;;;;;;4975554;28;20035;-59
2022/10/09 07:16:19;;;;;;;2.05;1.27;;;4.30;99.90;;;;;;4978716;28;20035;-58
2022/10/09 07:18:45;;;;;;;5.85;0.90;;;4.30;99.90;;;;;;4986374;28;20455;-57
2022/10/09 07:21:10;;;;;;;2.03;1.23;;;4.30;99.90;;;;;;4984874;28;20042;-60
2022/10/09 07:23:36;;;;;;;3.00;1.10;;;4.40;99.90;;;;;;4985394;28;20046;-59
2022/10/09 07:26:09;;;;;;;3.33;1.45;;;4.40;99.90;;;;;;4981801;28;20499;-58
2022/10/09 07:28:35;;;;;;;1.77;1.27;;;4.50;99.90;;;;;;4977507;28;20024;-57
2022/10/09 07:31:04;;;;;;;3.15;1.25;;;4.60;99.90;;;;;;4977178;28;20031;-58
2022/10/09 07:33:30;;;;;;;4.00;1.58;;;4.60;99.90;;;;;;4981031;28;20093;-58
2022/10/09 07:35:57;;;;;;;2.90;2.05;;;4.70;99.90;;;;;;4981753;28;20454;-57
2022/10/09 07:38:23;;;;;;;3.22;1.10;;;4.80;99.90;;;;;;4974240;28;20031;-58
2022/10/09 07:40:49;;;;;;;2.38;1.52;;;4.80;99.90;;;;;;4982361;28;20030;-58
2022/10/09 07:43:15;;;;;;;2.05;1.35;;;4.90;99.90;;;;;;4980093;28;20057;-58
2022/10/09 07:45:41;;;;;;;5.18;1.30;;;4.90;99.90;;;;;;4979759;28;20136;-60
2022/10/09 07:48:07;;;;;;;2.95;1.63;;;5.00;99.90;;;;;;4970867;28;20357;-58
2022/10/09 07:50:32;;;;;;;3.53;1.40;;;5.10;99.90;;;;;;4968696;28;20045;-59
2022/10/09 07:52:58;;;;;;;1.83;1.00;;;5.20;99.90;;;;;;4987541;28;20041;-57
2022/10/09 07:55:24;;;;;;;2.42;1.40;;;5.30;99.90;;;;;;4991720;28;20088;-58
2022/10/09 07:57:50;;;;;;;2.20;1.02;;;5.30;99.90;;;;;;4982705;28;20398;-59
2022/10/09 08:00:16;;;;;;;2.75;1.30;;;5.40;99.90;;;;;;4978521;28;20478;-57
2022/10/09 08:02:42;;;;;;;2.38;1.15;;;5.50;99.90;;;;;;4973261;28;20043;-58
2022/10/09 08:05:08;;;;;;;3.90;1.50;;;5.60;99.90;;;;;;4966533;28;20479;-59
2022/10/09 08:07:34;;;;;;;3.22;1.45;;;5.70;99.90;;;;;;4963937;28;20574;-58
2022/10/09 08:09:59;;;;;;;2.63;1.45;;;5.80;99.90;;;;;;4978780;28;20121;-60
2022/10/09 08:12:25;;;;;;;4.78;1.30;;;5.90;99.90;;;;;;4976406;28;20034;-59
2022/10/09 08:14:51;;;;;;;3.53;1.45;;;6.10;99.90;;;;;;4976862;28;20060;-58
2022/10/09 08:17:17;;;;;;;7.28;1.27;;;6.20;99.90;;;;;;4970597;28;20055;-57
2022/10/09 08:19:42;;;;;;;8.23;1.38;;;6.30;99.90;;;;;;4980392;28;20038;-58
2022/10/09 08:22:08;;;;;;;5.70;1.70;;;6.40;99.90;;;;;;4978383;28;20045;-58
2022/10/09 08:24:34;;;;;;;6.28;2.25;;;6.60;99.90;;;;;;4982612;28;20030;-58
2022/10/09 08:26:59;;;;;;;2.70;1.65;;;6.70;99.90;;;;;;4974389;28;20088;-59
2022/10/09 08:29:25;;;;;;;10.68;1.83;;;6.90;99.90;;;;;;4973272;28;20019;-59
2022/10/09 08:31:51;;;;;;;4.03;1.50;;;7.00;99.90;;;;;;4970076;28;20027;-59
2022/10/09 08:34:17;;;;;;;9.88;1.67;;;7.20;99.90;;;;;;4975021;28;20117;-58
2022/10/09 08:36:43;;;;;;;4.10;1.60;;;7.30;99.90;;;;;;4974250;28;20125;-59
2022/10/09 08:39:09;;;;;;;3.72;1.33;;;7.70;99.90;;;;;;4975916;28;20034;-58
2022/10/09 08:41:46;;;;;;;3.47;1.58;;;7.70;99.90;;;;;;4975712;28;20045;-58
2022/10/09 08:44:14;;;;;;;3.00;1.55;;;8.00;99.90;;;;;;4977391;28;20030;-58
2022/10/09 08:46:48;;;;;;;5.25;1.33;;;8.20;99.90;;;;;;4976055;28;20046;-58
2022/10/09 08:49:42;;;;;;;1.88;0.77;;;8.60;99.90;;;;;;4977916;28;20030;-58
2022/10/09 08:52:49;;;;;;;3.22;0.63;;;9.30;99.90;;;;;;4979955;28;20467;-58
2022/10/09 08:55:26;;;;;;;2.20;0.65;;;10.00;99.90;;;;;;4973124;28;20065;-57
2022/10/09 08:58:05;;;;;;;5.72;0.73;;;10.60;99.90;;;;;;4976420;28;20062;-57
2022/10/09 09:00:48;;;;;;;11.40;1.13;;;11.10;99.90;;;;;;4978000;28;20064;-58
2022/10/09 09:03:27;;;;;;;6.82;0.63;;;11.50;99.90;;;;;;4970357;28;20042;-59
2022/10/09 09:06:04;;;;;;;2.15;0.70;;;11.80;99.90;;;;;;4976528;28;20039;-59
2022/10/09 09:08:53;;;;;;;1.15;0.50;;;12.40;99.90;;;;;;4969239;28;20031;-60
2022/10/09 09:11:42;;;;;;;0.93;0.38;;;12.50;99.90;;;;;;4977403;28;20033;-58
2022/10/09 09:14:14;;;;;;;1.23;0.50;;;12.60;99.90;;;;;;4968168;28;20073;-60
2022/10/09 09:16:47;;;;;;;4.28;0.65;;;12.90;99.90;;;;;;4978658;28;20030;-60
2022/10/09 09:19:15;;;;;;;2.42;0.47;;;13.10;99.90;;;;;;4972283;28;20058;-58
2022/10/09 09:21:48;;;;;;;3.40;0.73;;;13.30;99.90;;;;;;4974969;28;20026;-58
2022/10/09 09:24:19;;;;;;;4.43;0.88;;;13.30;99.90;;;;;;4960574;28;20487;-58
2022/10/09 09:26:49;;;;;;;1.80;0.80;;;13.30;99.90;;;;;;4975256;28;20031;-60
2022/10/09 09:29:20;;;;;;;1.77;0.63;;;13.50;99.90;;;;;;4965144;28;20117;-59
2022/10/09 09:31:49;;;;;;;0.57;0.30;;;13.50;99.90;;;;;;4965282;28;20451;-58
2022/10/09 09:34:36;;;;;;;4.80;0.50;;;13.70;99.90;;;;;;4969216;28;20034;-60
2022/10/09 09:37:02;;;;;;;2.42;0.28;;;13.90;99.90;;;;;;4966478;28;20034;-59
2022/10/09 09:39:33;;;;;;;2.70;0.68;;;14.00;99.90;;;;;;4979900;28;20031;-60
2022/10/09 09:42:12;;;;;;;4.78;0.50;;;14.10;99.90;;;;;;4966591;28;20039;-59
2022/10/09 09:44:44;;;;;;;1.77;0.47;;;14.20;99.90;;;;;;4968367;28;20026;-58
2022/10/09 09:47:19;;;;;;;2.33;0.30;;;14.40;99.90;;;;;;4968705;28;20055;-60
2022/10/09 09:49:57;;;;;;;4.65;0.45;;;14.50;99.90;;;;;;4965975;28;20429;-59
2022/10/09 09:52:25;;;;;;;0.63;0.20;;;14.70;99.90;;;;;;4974104;28;20073;-59
2022/10/09 09:54:51;;;;;;;1.88;0.70;;;14.70;99.90;;;;;;4972112;28;20467;-59
2022/10/09 09:57:32;;;;;;;1.95;0.32;;;14.70;99.90;;;;;;4972157;28;20077;-59
2022/10/09 10:00:18;;;;;;;5.60;0.50;;;14.70;99.90;;;;;;4975894;28;20058;-58
2022/10/09 10:02:44;;;;;;;0.85;0.45;;;14.80;99.90;;;;;;4971392;28;20046;-59
2022/10/09 10:05:23;;;;;;;0.73;0.50;;;14.90;99.90;;;;;;4971450;28;20027;-63
2022/10/09 10:07:50;;;;;;;3.10;0.63;;;15.00;99.90;;;;;;4974978;28;20030;-60
2022/10/09 10:10:26;;;;;;;2.85;0.30;;;15.00;99.90;;;;;;4963371;28;20030;-60
2022/10/09 10:12:55;;;;;;;4.88;0.90;;;15.00;99.90;;;;;;4966842;28;20030;-59
2022/10/09 10:15:22;;;;;;;4.03;0.95;;;15.20;99.90;;;;;;4979567;28;20065;-59
2022/10/09 10:17:54;;;;;;;3.10;0.30;;;15.20;99.90;;;;;;4973915;28;20065;-61
2022/10/09 10:20:20;;;;;;;4.38;0.80;;;15.30;99.90;;;;;;4963651;28;20526;-59
2022/10/09 10:22:51;;;;;;;1.20;0.30;;;15.40;99.90;;;;;;4968944;28;20106;-59
2022/10/09 10:25:20;;;;;;;3.85;0.35;;;15.30;99.90;;;;;;4967773;28;20027;-59
2022/10/09 10:27:49;;;;;;;2.55;0.30;;;15.40;99.90;;;;;;4973758;28;20035;-57
2022/10/09 10:30:17;;;;;;;2.88;0.47;;;15.60;99.90;;;;;;4983423;28;20026;-59
2022/10/09 10:33:00;;;;;;;2.92;0.50;;;15.70;99.90;;;;;;4979209;28;20035;-60
2022/10/09 10:35:27;;;;;;;;;;;15.70;99.90;;;;;;4988617;28;20042;-59
2022/10/09 10:38:05;;;;;;;0.82;0.50;;;15.70;99.90;;;;;;4979212;28;19917;-64
2022/10/09 10:40:32;;;;;;;2.35;0.47;;;15.80;99.90;;;;;;4975135;28;20114;-58
2022/10/09 10:43:17;;;;;;;5.47;0.90;;;15.80;99.90;;;;;;4974277;28;20406;-57
2022/10/09 10:45:57;;;;;;;2.42;0.63;;;15.90;99.90;;;;;;4988758;28;20042;-57
2022/10/09 10:48:30;;;;;;;3.38;0.70;;;15.80;99.90;;;;;;4973496;28;20027;-58
2022/10/09 10:51:33;;;;;;;0.90;0.45;;;15.80;99.90;;;;;;4985502;28;20026;-59
2022/10/09 10:54:21;;;;;;;1.02;0.22;;;15.90;99.90;;;;;;4978301;28;20030;-59
2022/10/09 10:56:58;;;;;;;0.75;0.45;;;15.80;99.90;;;;;;4992638;28;20046;-57
2022/10/09 10:59:38;;;;;;;2.17;0.80;;;15.90;99.90;;;;;;4992610;28;20420;-58
2022/10/09 11:02:06;;;;;;;2.83;0.32;;;16.10;99.90;;;;;;4979460;28;20047;-59
2022/10/09 11:04:58;;;;;;;5.75;0.73;;;16.70;99.90;;;;;;4990256;28;20026;-58
2022/10/09 11:07:36;;;;;;;6.20;0.60;;;17.50;99.90;;;;;;4979189;28;20038;-58
2022/10/09 11:10:20;;;;;;;4.82;1.35;;;18.10;99.90;;;;;;4988975;28;20125;-59
2022/10/09 11:12:52;;;;;;;1.23;0.70;;;18.60;99.90;;;;;;4990027;28;20030;-58
2022/10/09 11:15:36;;;;;;;0.98;0.30;;;19.20;99.90;;;;;;4974055;28;20030;-59
2022/10/09 11:18:08;;;;;;;1.33;0.40;;;19.50;99.90;;;;;;4976838;28;20066;-60
2022/10/09 11:20:39;;;;;;;1.15;0.70;;;19.60;99.90;;;;;;4992712;28;20034;-59
2022/10/09 11:23:28;;;;;;;2.08;0.50;;;19.50;99.90;;;;;;4990641;28;20455;-59
2022/10/09 11:26:12;;;;;;;1.67;0.15;;;19.80;99.90;;;;;;4936147;29;20039;-58
2022/10/09 11:29:14;;;;;;;2.83;0.40;;;19.50;99.90;;;;;;4950547;28;20523;-58
2022/10/09 11:31:57;;;;;;;4.03;0.55;;;19.50;99.90;;;;;;4899531;29;20040;-58
2022/10/09 11:34:32;;;;;;;2.58;0.45;;;19.80;99.90;;;;;;4950618;28;20187;-60
2022/10/09 11:37:00;;;;;;;2.03;0.45;;;20.00;99.90;;;;;;4937936;29;20036;-57
2022/10/09 11:39:29;;;;;;;2.40;0.40;;;20.50;99.90;;;;;;4935045;29;20028;-59
2022/10/09 11:41:56;;;;;;;1.98;0.60;;;20.30;99.90;;;;;;4936869;28;20042;-57
2022/10/09 11:44:34;;;;;;;2.25;0.63;;;20.20;99.90;;;;;;4944459;28;20078;-58
2022/10/09 11:47:12;;;;;;;3.70;0.77;;;20.40;99.90;;;;;;4934095;29;20091;-59
2022/10/09 11:50:01;;;;;;;1.73;0.38;;;20.60;99.90;;;;;;4936760;28;20039;-59
2022/10/09 11:52:45;;;;;;;1.40;0.60;;;20.80;99.90;;;;;;4933129;29;20059;-59
2022/10/09 11:55:20;;;;;;;1.88;0.40;;;20.70;99.40;;;;;;4931167;29;20040;-58
2022/10/09 11:57:46;;;;;;;1.33;0.43;;;20.70;98.80;;;;;;4935928;29;20023;-58
2022/10/09 12:00:12;;;;;;;3.00;0.60;;;20.60;99.20;;;;;;4939644;28;20082;-58
2022/10/09 12:02:39;;;;;;;2.50;0.55;;;20.40;99.90;;;;;;4954967;28;20053;-59
2022/10/09 12:05:44;;;;;;;1.58;0.40;;;20.60;99.90;;;;;;4989675;28;20057;-57
2022/10/09 12:08:25;;;;;;;2.88;0.57;;;20.70;99.70;;;;;;4980026;28;20046;-57
2022/10/09 12:10:57;;;;;;;3.58;0.35;;;20.90;99.50;;;;;;4990326;28;20077;-59
2022/10/09 12:13:39;;;;;;;2.50;0.45;;;20.80;99.10;;;;;;4979993;28;20189;-59
2022/10/09 12:16:06;;;;;;;;;;;20.90;98.40;;;;;;4980400;28;20096;-59
2022/10/09 12:18:37;;;;;;;1.30;0.45;;;20.70;99.00;;;;;;4970287;28;20012;-58
2022/10/09 12:21:06;;;;;;;3.27;0.60;;;20.90;98.10;;;;;;4964653;28;20049;-59
2022/10/09 12:23:35;;;;;;;2.67;0.35;;;21.10;97.60;;;;;;4966602;28;20022;-59
2022/10/09 12:26:02;;;;;;;4.32;0.90;;;21.70;96.60;;;;;;4964648;28;20541;-59
2022/10/09 12:28:48;;;;;;;1.17;0.30;;;21.70;96.60;;;;;;4972883;28;20131;-58
2022/10/09 12:31:30;;;;;;;2.35;0.52;;;22.30;94.50;;;;;;4966522;28;20023;-58
2022/10/09 12:34:28;;;;;;;3.20;0.38;;;21.90;94.70;;;;;;4964939;28;20047;-59
2022/10/09 12:37:14;;;;;;;1.52;0.40;;;22.10;95.00;;;;;;4978867;28;20489;-59
2022/10/09 12:39:40;;;;;;;2.25;0.60;;;21.70;95.20;;;;;;4972916;28;20423;-60
2022/10/09 12:42:13;;;;;;;2.13;0.45;;;22.00;93.70;;;;;;4975769;28;20039;-59
2022/10/09 12:44:39;;;;;;;2.17;0.40;;;21.80;92.50;;;;;;4977733;28;20034;-59
2022/10/09 12:47:08;;;;;;;1.08;0.40;;;22.10;92.30;;;;;;4973766;28;20047;-58
2022/10/09 12:49:34;;;;;;;1.90;0.45;;;22.00;93.00;;;;;;4965275;28;20035;-58
2022/10/09 12:52:01;;;;;;;0.57;0.30;;;22.00;92.00;;;;;;4974716;28;20034;-57
2022/10/09 12:54:30;;;;;;;1.90;0.50;;;21.90;91.90;;;;;;4978024;28;20491;-59
2022/10/09 12:56:57;;;;;;;2.58;0.60;;;22.40;88.40;;;;;;4977585;28;20486;-58
2022/10/09 12:59:24;;;;;;;3.58;0.50;;;22.70;87.10;;;;;;4975654;28;20038;-59
2022/10/09 13:01:56;;;;;;;0.82;0.45;;;22.60;87.50;;;;;;4976842;28;20091;-60
2022/10/09 13:04:29;;;;;;;1.35;0.50;;;23.10;85.30;;;;;;4969765;28;20475;-58
2022/10/09 13:06:56;;;;;;;3.15;0.50;;;22.70;86.00;;;;;;4964646;28;20035;-58
2022/10/09 13:09:45;;;;;;;2.17;0.60;;;22.50;86.40;;;;;;4970175;28;20030;-59